sensor_id;sensor_type;location;lat;lon;timestamp;temperature;humidity
42979;DHT22;28616;44.746;19.678;2022-10-31T00:01:22;11.60;99.90
42979;DHT22;28616;44.746;19.678;2022-10-31T00:03:48;11.60;99.90
42979;DHT22;28616;44.746;19.678;2022-10-31T00:06:15;11.50;99.90
42979;DHT22;28616;44.746;19.678;2022-10-31T00:08:47;11.50;99.90
42979;DHT22;28616;44.746;19.678;2022-10-31T00:11:13;11.50;99.90
42979;DHT22;28616;44.746;19.678;2022-10-31T00:13:39;11.50;99.90
42979;DHT22;28616;44.746;19.678;2022-10-31T00:16:12;11.50;99.90
42979;DHT22;28616;44.746;19.678;2022-10-31T00:18:38;11.50;99.90
42979;DHT22;28616;44.746;19.678;2022-10-31T00:21:04;11.50;99.90
42979;DHT22;28616;44.746;19.678;2022-10-31T00:23:30;11.50;99.90
42979;DHT22;28616;44.746;19.678;2022-10-31T00:26:01;11.40;99.90
42979;DHT22;28616;44.746;19.678;2022-10-31T00:28:27;11.50;99.90
42979;DHT22;28616;44.746;19.678;2022-10-31T00:30:53;11.50;99.90
42979;DHT22;28616;44.746;19.678;2022-10-31T00:33:18;11.50;99.90
42979;DHT22;28616;44.746;19.678;2022-10-31T00:35:49;11.50;99.90
42979;DHT22;28616;44.746;19.678;2022-10-31T00:38:16;11.50;99.90
42979;DHT22;28616;44.746;19.678;2022-10-31T00:40:41;11.50;99.90
42979;DHT22;28616;44.746;19.678;2022-10-31T00:43:07;11.40;99.90
42979;DHT22;28616;44.746;19.678;2022-10-31T00:45:33;11.40;99.90
42979;DHT22;28616;44.746;19.678;2022-10-31T00:47:59;11.40;99.90
42979;DHT22;28616;44.746;19.678;2022-10-31T00:50:25;11.30;99.90
42979;DHT22;28616;44.746;19.678;2022-10-31T00:52:50;11.30;99.90
42979;DHT22;28616;44.746;19.678;2022-10-31T00:55:16;11.30;99.90
42979;DHT22;28616;44.746;19.678;2022-10-31T00:57:42;11.30;99.90
42979;DHT22;28616;44.746;19.678;2022-10-31T01:00:08;11.30;99.90
42979;DHT22;28616;44.746;19.678;2022-10-31T01:02:34;11.30;99.90
42979;DHT22;28616;44.746;19.678;2022-10-31T01:05:00;11.30;99.90
42979;DHT22;28616;44.746;19.678;2022-10-31T01:07:25;11.30;99.90
42979;DHT22;28616;44.746;19.678;2022-10-31T01:09:51;11.40;99.90
42979;DHT22;28616;44.746;19.678;2022-10-31T01:12:17;11.30;99.90
42979;DHT22;28616;44.746;19.678;2022-10-31T01:14:44;11.40;99.90
42979;DHT22;28616;44.746;19.678;2022-10-31T01:17:10;11.30;99.90
42979;DHT22;28616;44.746;19.678;2022-10-31T01:19:36;11.30;99.90
42979;DHT22;28616;44.746;19.678;2022-10-31T01:22:02;11.40;99.90
42979;DHT22;28616;44.746;19.678;2022-10-31T01:24:28;11.30;99.90
42979;DHT22;28616;44.746;19.678;2022-10-31T01:26:53;11.30;99.90
42979;DHT22;28616;44.746;19.678;2022-10-31T01:29:19;11.30;99.90
42979;DHT22;28616;44.746;19.678;2022-10-31T01:31:45;11.30;99.90
42979;DHT22;28616;44.746;19.678;2022-10-31T01:34:15;11.20;99.90
42979;DHT22;28616;44.746;19.678;2022-10-31T01:36:42;11.20;99.90
42979;DHT22;28616;44.746;19.678;2022-10-31T01:39:12;11.20;99.90
42979;DHT22;28616;44.746;19.678;2022-10-31T01:41:44;11.30;99.90
42979;DHT22;28616;44.746;19.678;2022-10-31T01:47:06;11.20;99.90
42979;DHT22;28616;44.746;19.678;2022-10-31T01:49:49;11.20;99.90
42979;DHT22;28616;44.746;19.678;2022-10-31T01:55:39;11.20;99.90
42979;DHT22;28616;44.746;19.678;2022-10-31T01:58:12;11.30;99.90
42979;DHT22;28616;44.746;19.678;2022-10-31T02:00:39;11.30;99.90
42979;DHT22;28616;44.746;19.678;2022-10-31T02:03:07;11.30;99.90
42979;DHT22;28616;44.746;19.678;2022-10-31T02:05:33;11.30;99.90
42979;DHT22;28616;44.746;19.678;2022-10-31T02:08:01;11.30;99.90
42979;DHT22;28616;44.746;19.678;2022-10-31T02:10:30;11.30;99.90
42979;DHT22;28616;44.746;19.678;2022-10-31T02:12:58;11.30;99.90
42979;DHT22;28616;44.746;19.678;2022-10-31T02:15:25;11.30;99.90
42979;DHT22;28616;44.746;19.678;2022-10-31T02:17:51;11.30;99.90
42979;DHT22;28616;44.746;19.678;2022-10-31T02:20:23;11.20;99.90
42979;DHT22;28616;44.746;19.678;2022-10-31T02:31:15;11.20;99.90
42979;DHT22;28616;44.746;19.678;2022-10-31T02:33:52;11.20;99.90
42979;DHT22;28616;44.746;19.678;2022-10-31T02:36:29;11.20;99.90
42979;DHT22;28616;44.746;19.678;2022-10-31T02:39:26;11.20;99.90
42979;DHT22;28616;44.746;19.678;2022-10-31T02:42:21;11.20;99.90
42979;DHT22;28616;44.746;19.678;2022-10-31T02:45:07;11.20;99.90
42979;DHT22;28616;44.746;19.678;2022-10-31T02:47:38;11.20;99.90
42979;DHT22;28616;44.746;19.678;2022-10-31T02:50:19;11.20;99.90
42979;DHT22;28616;44.746;19.678;2022-10-31T02:52:50;11.20;99.90
42979;DHT22;28616;44.746;19.678;2022-10-31T02:57:56;11.20;99.90
42979;DHT22;28616;44.746;19.678;2022-10-31T03:00:22;11.10;99.90
42979;DHT22;28616;44.746;19.678;2022-10-31T03:03:13;11.10;99.90
42979;DHT22;28616;44.746;19.678;2022-10-31T03:05:59;11.10;99.90
42979;DHT22;28616;44.746;19.678;2022-10-31T03:11:12;11.10;99.90
42979;DHT22;28616;44.746;19.678;2022-10-31T03:16:29;11.10;99.90
42979;DHT22;28616;44.746;19.678;2022-10-31T03:19:04;11.10;99.90
42979;DHT22;28616;44.746;19.678;2022-10-31T03:24:10;11.00;99.90
42979;DHT22;28616;44.746;19.678;2022-10-31T03:26:40;11.00;99.90
42979;DHT22;28616;44.746;19.678;2022-10-31T03:29:10;11.10;99.90
42979;DHT22;28616;44.746;19.678;2022-10-31T03:31:47;11.00;99.90
42979;DHT22;28616;44.746;19.678;2022-10-31T03:34:15;11.00;99.90
42979;DHT22;28616;44.746;19.678;2022-10-31T03:36:44;11.00;99.90
42979;DHT22;28616;44.746;19.678;2022-10-31T03:39:13;10.90;99.90
42979;DHT22;28616;44.746;19.678;2022-10-31T03:41:43;10.90;99.90
42979;DHT22;28616;44.746;19.678;2022-10-31T03:44:15;10.90;99.90
42979;DHT22;28616;44.746;19.678;2022-10-31T03:46:42;10.90;99.90
42979;DHT22;28616;44.746;19.678;2022-10-31T03:49:08;10.90;99.90
42979;DHT22;28616;44.746;19.678;2022-10-31T03:51:59;10.80;99.90
42979;DHT22;28616;44.746;19.678;2022-10-31T03:54:51;10.80;99.90
42979;DHT22;28616;44.746;19.678;2022-10-31T04:02:29;10.80;99.90
42979;DHT22;28616;44.746;19.678;2022-10-31T04:04:56;10.80;99.90
42979;DHT22;28616;44.746;19.678;2022-10-31T04:07:27;10.80;99.90
42979;DHT22;28616;44.746;19.678;2022-10-31T04:09:55;10.70;99.90
42979;DHT22;28616;44.746;19.678;2022-10-31T04:12:24;10.70;99.90
42979;DHT22;28616;44.746;19.678;2022-10-31T04:14:51;10.70;99.90
42979;DHT22;28616;44.746;19.678;2022-10-31T04:17:21;10.70;99.90
42979;DHT22;28616;44.746;19.678;2022-10-31T04:19:48;10.70;99.90
42979;DHT22;28616;44.746;19.678;2022-10-31T04:22:14;10.70;99.90
42979;DHT22;28616;44.746;19.678;2022-10-31T04:24:40;10.70;99.90
42979;DHT22;28616;44.746;19.678;2022-10-31T04:27:06;10.70;99.90
42979;DHT22;28616;44.746;19.678;2022-10-31T04:29:32;10.60;99.90
42979;DHT22;28616;44.746;19.678;2022-10-31T04:31:58;10.60;99.90
42979;DHT22;28616;44.746;19.678;2022-10-31T04:34:24;10.60;99.90
42979;DHT22;28616;44.746;19.678;2022-10-31T04:36:49;10.60;99.90
42979;DHT22;28616;44.746;19.678;2022-10-31T04:39:15;10.60;99.90
42979;DHT22;28616;44.746;19.678;2022-10-31T04:41:41;10.60;99.90
42979;DHT22;28616;44.746;19.678;2022-10-31T04:44:07;10.60;99.90
42979;DHT22;28616;44.746;19.678;2022-10-31T04:46:32;10.60;99.90
42979;DHT22;28616;44.746;19.678;2022-10-31T04:48:58;10.60;99.90
42979;DHT22;28616;44.746;19.678;2022-10-31T04:51:24;10.60;99.90
42979;DHT22;28616;44.746;19.678;2022-10-31T04:53:50;10.60;99.90
42979;DHT22;28616;44.746;19.678;2022-10-31T04:56:15;10.60;99.90
42979;DHT22;28616;44.746;19.678;2022-10-31T04:58:41;10.60;99.90
42979;DHT22;28616;44.746;19.678;2022-10-31T05:01:07;10.60;99.90
42979;DHT22;28616;44.746;19.678;2022-10-31T05:03:32;10.60;99.90
42979;DHT22;28616;44.746;19.678;2022-10-31T05:05:58;10.60;99.90
42979;DHT22;28616;44.746;19.678;2022-10-31T05:08:24;10.60;99.90
42979;DHT22;28616;44.746;19.678;2022-10-31T05:10:50;10.60;99.90
42979;DHT22;28616;44.746;19.678;2022-10-31T05:13:15;10.60;99.90
42979;DHT22;28616;44.746;19.678;2022-10-31T05:15:41;10.60;99.90
42979;DHT22;28616;44.746;19.678;2022-10-31T05:18:07;10.60;99.90
42979;DHT22;28616;44.746;19.678;2022-10-31T05:20:33;10.70;99.90
42979;DHT22;28616;44.746;19.678;2022-10-31T05:22:59;10.70;99.90
42979;DHT22;28616;44.746;19.678;2022-10-31T05:25:27;10.70;99.90
42979;DHT22;28616;44.746;19.678;2022-10-31T05:27:54;10.70;99.90
42979;DHT22;28616;44.746;19.678;2022-10-31T05:30:23;10.70;99.90
42979;DHT22;28616;44.746;19.678;2022-10-31T05:32:50;10.70;99.90
42979;DHT22;28616;44.746;19.678;2022-10-31T05:35:24;10.70;99.90
42979;DHT22;28616;44.746;19.678;2022-10-31T05:37:50;10.70;99.90
42979;DHT22;28616;44.746;19.678;2022-10-31T05:40:18;10.70;99.90
42979;DHT22;28616;44.746;19.678;2022-10-31T05:42:44;10.70;99.90
42979;DHT22;28616;44.746;19.678;2022-10-31T05:45:12;10.70;99.90
42979;DHT22;28616;44.746;19.678;2022-10-31T05:47:39;10.70;99.90
42979;DHT22;28616;44.746;19.678;2022-10-31T05:50:05;10.70;99.90
42979;DHT22;28616;44.746;19.678;2022-10-31T05:52:31;10.80;99.90
42979;DHT22;28616;44.746;19.678;2022-10-31T05:54:57;10.80;99.90
42979;DHT22;28616;44.746;19.678;2022-10-31T05:57:23;10.90;99.90
42979;DHT22;28616;44.746;19.678;2022-10-31T05:59:49;10.80;99.90
42979;DHT22;28616;44.746;19.678;2022-10-31T06:02:18;10.80;99.90
42979;DHT22;28616;44.746;19.678;2022-10-31T06:04:44;10.80;99.90
42979;DHT22;28616;44.746;19.678;2022-10-31T06:07:10;10.80;99.90
42979;DHT22;28616;44.746;19.678;2022-10-31T06:09:36;10.80;99.90
42979;DHT22;28616;44.746;19.678;2022-10-31T06:12:01;10.80;99.90
42979;DHT22;28616;44.746;19.678;2022-10-31T06:14:27;10.90;99.90
42979;DHT22;28616;44.746;19.678;2022-10-31T06:16:54;10.80;99.90
42979;DHT22;28616;44.746;19.678;2022-10-31T06:19:20;10.80;99.90
42979;DHT22;28616;44.746;19.678;2022-10-31T06:21:46;10.80;99.90
42979;DHT22;28616;44.746;19.678;2022-10-31T06:24:12;10.80;99.90
42979;DHT22;28616;44.746;19.678;2022-10-31T06:26:37;10.90;99.90
42979;DHT22;28616;44.746;19.678;2022-10-31T06:29:03;10.90;99.90
42979;DHT22;28616;44.746;19.678;2022-10-31T06:31:29;10.90;99.90
42979;DHT22;28616;44.746;19.678;2022-10-31T06:33:55;10.90;99.90
42979;DHT22;28616;44.746;19.678;2022-10-31T06:36:21;10.90;99.90
42979;DHT22;28616;44.746;19.678;2022-10-31T06:38:46;10.90;99.90
42979;DHT22;28616;44.746;19.678;2022-10-31T06:41:12;10.90;99.90
42979;DHT22;28616;44.746;19.678;2022-10-31T06:43:38;10.90;99.90
42979;DHT22;28616;44.746;19.678;2022-10-31T06:46:04;10.90;99.90
42979;DHT22;28616;44.746;19.678;2022-10-31T06:48:31;10.90;99.90
42979;DHT22;28616;44.746;19.678;2022-10-31T06:51:00;10.90;99.90
42979;DHT22;28616;44.746;19.678;2022-10-31T06:53:27;10.90;99.90
42979;DHT22;28616;44.746;19.678;2022-10-31T06:55:55;11.00;99.90
42979;DHT22;28616;44.746;19.678;2022-10-31T06:58:21;11.00;99.90
42979;DHT22;28616;44.746;19.678;2022-10-31T07:00:47;11.00;99.90
42979;DHT22;28616;44.746;19.678;2022-10-31T07:03:14;11.00;99.90
42979;DHT22;28616;44.746;19.678;2022-10-31T07:05:41;11.00;99.90
42979;DHT22;28616;44.746;19.678;2022-10-31T07:08:10;10.90;99.90
42979;DHT22;28616;44.746;19.678;2022-10-31T07:10:37;10.90;99.90
42979;DHT22;28616;44.746;19.678;2022-10-31T07:13:05;10.90;99.90
42979;DHT22;28616;44.746;19.678;2022-10-31T07:15:34;10.90;99.90
42979;DHT22;28616;44.746;19.678;2022-10-31T07:18:02;10.90;99.90
42979;DHT22;28616;44.746;19.678;2022-10-31T07:20:29;10.90;99.90
42979;DHT22;28616;44.746;19.678;2022-10-31T07:22:55;10.90;99.90
42979;DHT22;28616;44.746;19.678;2022-10-31T07:25:21;11.00;99.90
42979;DHT22;28616;44.746;19.678;2022-10-31T07:27:47;11.00;99.90
42979;DHT22;28616;44.746;19.678;2022-10-31T07:30:13;11.00;99.90
42979;DHT22;28616;44.746;19.678;2022-10-31T07:32:51;11.00;99.90
42979;DHT22;28616;44.746;19.678;2022-10-31T07:35:30;11.10;99.90
42979;DHT22;28616;44.746;19.678;2022-10-31T07:37:56;11.10;99.90
42979;DHT22;28616;44.746;19.678;2022-10-31T07:40:22;11.20;99.90
42979;DHT22;28616;44.746;19.678;2022-10-31T07:42:50;11.10;99.90
42979;DHT22;28616;44.746;19.678;2022-10-31T07:45:18;11.20;99.90
42979;DHT22;28616;44.746;19.678;2022-10-31T07:47:49;11.20;99.90
42979;DHT22;28616;44.746;19.678;2022-10-31T07:50:22;11.20;99.90
42979;DHT22;28616;44.746;19.678;2022-10-31T07:53:07;11.20;99.90
42979;DHT22;28616;44.746;19.678;2022-10-31T07:55:34;11.20;99.90
42979;DHT22;28616;44.746;19.678;2022-10-31T07:58:08;11.20;99.90
42979;DHT22;28616;44.746;19.678;2022-10-31T08:00:35;11.30;99.90
42979;DHT22;28616;44.746;19.678;2022-10-31T08:03:04;11.30;99.90
42979;DHT22;28616;44.746;19.678;2022-10-31T08:05:31;11.30;99.90
42979;DHT22;28616;44.746;19.678;2022-10-31T08:07:57;11.30;99.90
42979;DHT22;28616;44.746;19.678;2022-10-31T08:10:23;11.30;99.90
42979;DHT22;28616;44.746;19.678;2022-10-31T08:12:57;11.30;99.90
42979;DHT22;28616;44.746;19.678;2022-10-31T08:15:23;11.40;99.90
42979;DHT22;28616;44.746;19.678;2022-10-31T08:17:49;11.40;99.90
42979;DHT22;28616;44.746;19.678;2022-10-31T08:20:15;11.50;99.90
42979;DHT22;28616;44.746;19.678;2022-10-31T08:22:42;11.50;99.90
42979;DHT22;28616;44.746;19.678;2022-10-31T08:25:08;11.60;99.90
42979;DHT22;28616;44.746;19.678;2022-10-31T08:27:34;11.60;99.90
42979;DHT22;28616;44.746;19.678;2022-10-31T08:30:00;11.60;99.90
42979;DHT22;28616;44.746;19.678;2022-10-31T08:32:25;11.70;99.90
42979;DHT22;28616;44.746;19.678;2022-10-31T08:34:51;11.70;99.90
42979;DHT22;28616;44.746;19.678;2022-10-31T08:37:17;11.90;99.90
42979;DHT22;28616;44.746;19.678;2022-10-31T08:39:48;11.90;99.90
42979;DHT22;28616;44.746;19.678;2022-10-31T08:42:14;12.10;99.90
42979;DHT22;28616;44.746;19.678;2022-10-31T08:44:39;12.10;99.90
42979;DHT22;28616;44.746;19.678;2022-10-31T08:47:05;12.10;99.90
42979;DHT22;28616;44.746;19.678;2022-10-31T08:49:31;12.20;99.90
42979;DHT22;28616;44.746;19.678;2022-10-31T08:51:57;12.20;99.90
42979;DHT22;28616;44.746;19.678;2022-10-31T08:54:22;12.20;99.90
42979;DHT22;28616;44.746;19.678;2022-10-31T08:56:52;12.20;99.90
42979;DHT22;28616;44.746;19.678;2022-10-31T08:59:18;12.30;99.90
42979;DHT22;28616;44.746;19.678;2022-10-31T09:01:45;12.30;99.90
42979;DHT22;28616;44.746;19.678;2022-10-31T09:04:10;12.30;99.90
42979;DHT22;28616;44.746;19.678;2022-10-31T09:06:36;12.30;99.90
42979;DHT22;28616;44.746;19.678;2022-10-31T09:09:02;12.40;99.90
42979;DHT22;28616;44.746;19.678;2022-10-31T09:11:30;12.50;99.90
42979;DHT22;28616;44.746;19.678;2022-10-31T09:13:55;12.50;99.90
42979;DHT22;28616;44.746;19.678;2022-10-31T09:16:21;12.60;99.90
42979;DHT22;28616;44.746;19.678;2022-10-31T09:18:47;12.60;99.90
42979;DHT22;28616;44.746;19.678;2022-10-31T09:21:12;12.70;99.90
42979;DHT22;28616;44.746;19.678;2022-10-31T09:23:38;12.80;99.90
42979;DHT22;28616;44.746;19.678;2022-10-31T09:26:04;12.80;99.90
42979;DHT22;28616;44.746;19.678;2022-10-31T09:28:30;12.90;99.90
42979;DHT22;28616;44.746;19.678;2022-10-31T09:30:57;12.90;99.90
42979;DHT22;28616;44.746;19.678;2022-10-31T09:33:23;12.90;99.90
42979;DHT22;28616;44.746;19.678;2022-10-31T09:35:49;13.00;99.90
42979;DHT22;28616;44.746;19.678;2022-10-31T09:38:18;13.10;99.90
42979;DHT22;28616;44.746;19.678;2022-10-31T09:44:08;13.10;99.90
42979;DHT22;28616;44.746;19.678;2022-10-31T09:47:10;13.10;99.90
42979;DHT22;28616;44.746;19.678;2022-10-31T09:52:20;13.40;99.90
42979;DHT22;28616;44.746;19.678;2022-10-31T09:57:19;13.50;99.90
42979;DHT22;28616;44.746;19.678;2022-10-31T09:59:49;13.60;99.90
42979;DHT22;28616;44.746;19.678;2022-10-31T10:04:57;13.60;99.90
42979;DHT22;28616;44.746;19.678;2022-10-31T10:10:00;13.50;99.90
42979;DHT22;28616;44.746;19.678;2022-10-31T10:13:01;13.50;99.90
42979;DHT22;28616;44.746;19.678;2022-10-31T10:21:26;14.00;99.90
42979;DHT22;28616;44.746;19.678;2022-10-31T10:24:25;14.10;99.90
42979;DHT22;28616;44.746;19.678;2022-10-31T10:32:58;14.30;99.90
42979;DHT22;28616;44.746;19.678;2022-10-31T10:35:33;14.50;99.90
42979;DHT22;28616;44.746;19.678;2022-10-31T10:38:11;14.50;99.90
42979;DHT22;28616;44.746;19.678;2022-10-31T10:40:38;14.60;99.90
42979;DHT22;28616;44.746;19.678;2022-10-31T10:52:03;15.30;99.90
42979;DHT22;28616;44.746;19.678;2022-10-31T10:57:30;15.70;99.90
42979;DHT22;28616;44.746;19.678;2022-10-31T11:00:00;15.80;99.90
42979;DHT22;28616;44.746;19.678;2022-10-31T11:02:30;16.00;99.90
42979;DHT22;28616;44.746;19.678;2022-10-31T11:04:58;16.40;99.90
42979;DHT22;28616;44.746;19.678;2022-10-31T11:07:25;16.70;99.90
42979;DHT22;28616;44.746;19.678;2022-10-31T11:10:01;16.80;99.90
42979;DHT22;28616;44.746;19.678;2022-10-31T11:12:33;16.80;99.90
42979;DHT22;28616;44.746;19.678;2022-10-31T11:15:00;17.10;99.90
42979;DHT22;28616;44.746;19.678;2022-10-31T11:17:30;17.10;99.90
42979;DHT22;28616;44.746;19.678;2022-10-31T11:20:30;17.30;99.90
42979;DHT22;28616;44.746;19.678;2022-10-31T11:23:10;17.50;99.90
42979;DHT22;28616;44.746;19.678;2022-10-31T11:25:51;17.70;99.90
42979;DHT22;28616;44.746;19.678;2022-10-31T11:28:18;17.80;99.90
42979;DHT22;28616;44.746;19.678;2022-10-31T11:35:57;18.20;99.90
42979;DHT22;28616;44.746;19.678;2022-10-31T11:38:44;18.30;99.90
42979;DHT22;28616;44.746;19.678;2022-10-31T11:41:15;18.30;99.90
42979;DHT22;28616;44.746;19.678;2022-10-31T11:43:53;18.30;99.90
42979;DHT22;28616;44.746;19.678;2022-10-31T11:46:44;18.50;99.90
42979;DHT22;28616;44.746;19.678;2022-10-31T11:49:19;18.60;99.90
42979;DHT22;28616;44.746;19.678;2022-10-31T11:51:53;18.70;99.90
42979;DHT22;28616;44.746;19.678;2022-10-31T11:54:32;18.70;99.90
42979;DHT22;28616;44.746;19.678;2022-10-31T11:57:00;18.70;99.90
42979;DHT22;28616;44.746;19.678;2022-10-31T11:59:32;18.80;99.90
42979;DHT22;28616;44.746;19.678;2022-10-31T12:02:00;18.80;99.90
42979;DHT22;28616;44.746;19.678;2022-10-31T12:06:59;18.70;99.90
42979;DHT22;28616;44.746;19.678;2022-10-31T12:09:34;18.70;99.90
42979;DHT22;28616;44.746;19.678;2022-10-31T12:20:07;18.40;99.90
42979;DHT22;28616;44.746;19.678;2022-10-31T12:22:47;18.50;99.90
42979;DHT22;28616;44.746;19.678;2022-10-31T12:28:28;18.30;99.90
42979;DHT22;28616;44.746;19.678;2022-10-31T12:39:26;18.40;99.90
42979;DHT22;28616;44.746;19.678;2022-10-31T12:42:20;18.30;99.90
42979;DHT22;28616;44.746;19.678;2022-10-31T12:55:52;18.00;99.90
42979;DHT22;28616;44.746;19.678;2022-10-31T12:58:33;17.90;99.90
42979;DHT22;28616;44.746;19.678;2022-10-31T13:06:18;17.80;99.90
42979;DHT22;28616;44.746;19.678;2022-10-31T13:08:46;17.70;99.90
42979;DHT22;28616;44.746;19.678;2022-10-31T13:11:21;17.70;99.90
42979;DHT22;28616;44.746;19.678;2022-10-31T13:14:12;17.60;99.90
42979;DHT22;28616;44.746;19.678;2022-10-31T13:16:46;17.60;99.90
42979;DHT22;28616;44.746;19.678;2022-10-31T13:19:30;17.60;99.90
42979;DHT22;28616;44.746;19.678;2022-10-31T13:22:08;17.50;99.90
42979;DHT22;28616;44.746;19.678;2022-10-31T13:24:50;17.50;99.90
42979;DHT22;28616;44.746;19.678;2022-10-31T13:27:28;17.50;99.90
42979;DHT22;28616;44.746;19.678;2022-10-31T13:30:14;17.50;99.90
42979;DHT22;28616;44.746;19.678;2022-10-31T13:44:14;17.40;99.90
42979;DHT22;28616;44.746;19.678;2022-10-31T13:46:42;17.50;99.90
42979;DHT22;28616;44.746;19.678;2022-10-31T13:51:51;17.40;99.90
42979;DHT22;28616;44.746;19.678;2022-10-31T13:54:31;17.40;99.90
42979;DHT22;28616;44.746;19.678;2022-10-31T13:56:57;17.40;99.90
42979;DHT22;28616;44.746;19.678;2022-10-31T13:59:25;17.40;99.90
42979;DHT22;28616;44.746;19.678;2022-10-31T14:02:12;17.40;99.90
42979;DHT22;28616;44.746;19.678;2022-10-31T14:04:46;17.40;99.90
42979;DHT22;28616;44.746;19.678;2022-10-31T14:07:16;17.40;99.90
42979;DHT22;28616;44.746;19.678;2022-10-31T14:12:39;17.40;99.90
42979;DHT22;28616;44.746;19.678;2022-10-31T14:15:19;17.40;99.90
42979;DHT22;28616;44.746;19.678;2022-10-31T14:17:55;17.30;99.90
42979;DHT22;28616;44.746;19.678;2022-10-31T14:22:51;17.30;99.90
42979;DHT22;28616;44.746;19.678;2022-10-31T14:25:34;17.30;99.90
42979;DHT22;28616;44.746;19.678;2022-10-31T14:28:19;17.30;99.90
42979;DHT22;28616;44.746;19.678;2022-10-31T14:30:57;17.30;99.90
42979;DHT22;28616;44.746;19.678;2022-10-31T14:33:29;17.20;99.90
42979;DHT22;28616;44.746;19.678;2022-10-31T14:36:03;17.20;99.90
42979;DHT22;28616;44.746;19.678;2022-10-31T14:38:46;17.20;99.90
42979;DHT22;28616;44.746;19.678;2022-10-31T14:44:51;17.10;99.90
42979;DHT22;28616;44.746;19.678;2022-10-31T14:50:41;17.00;99.90
42979;DHT22;28616;44.746;19.678;2022-10-31T14:53:14;17.00;99.90
42979;DHT22;28616;44.746;19.678;2022-10-31T14:55:47;16.90;99.90
42979;DHT22;28616;44.746;19.678;2022-10-31T14:58:18;16.80;99.90
42979;DHT22;28616;44.746;19.678;2022-10-31T15:00:45;16.80;99.90
42979;DHT22;28616;44.746;19.678;2022-10-31T15:03:38;16.80;99.90
42979;DHT22;28616;44.746;19.678;2022-10-31T15:06:17;16.80;99.90
42979;DHT22;28616;44.746;19.678;2022-10-31T15:08:46;16.70;99.90
42979;DHT22;28616;44.746;19.678;2022-10-31T15:13:53;16.60;99.90
42979;DHT22;28616;44.746;19.678;2022-10-31T15:16:24;16.50;99.90
42979;DHT22;28616;44.746;19.678;2022-10-31T15:19:05;16.40;99.90
42979;DHT22;28616;44.746;19.678;2022-10-31T15:21:33;16.30;99.90
42979;DHT22;28616;44.746;19.678;2022-10-31T15:24:01;16.30;99.90
42979;DHT22;28616;44.746;19.678;2022-10-31T15:26:31;16.20;99.90
42979;DHT22;28616;44.746;19.678;2022-10-31T15:29:00;16.10;99.90
42979;DHT22;28616;44.746;19.678;2022-10-31T15:31:27;16.00;99.90
42979;DHT22;28616;44.746;19.678;2022-10-31T15:33:54;15.90;99.90
42979;DHT22;28616;44.746;19.678;2022-10-31T15:36:26;15.90;99.90
42979;DHT22;28616;44.746;19.678;2022-10-31T15:38:52;15.80;99.90
42979;DHT22;28616;44.746;19.678;2022-10-31T15:44:04;15.70;99.90
42979;DHT22;28616;44.746;19.678;2022-10-31T15:46:32;15.70;99.90
42979;DHT22;28616;44.746;19.678;2022-10-31T15:49:00;15.60;99.90
42979;DHT22;28616;44.746;19.678;2022-10-31T15:51:32;15.60;99.90
42979;DHT22;28616;44.746;19.678;2022-10-31T15:53:59;15.50;99.90
42979;DHT22;28616;44.746;19.678;2022-10-31T15:56:30;15.40;99.90
42979;DHT22;28616;44.746;19.678;2022-10-31T15:58:58;15.30;99.90
42979;DHT22;28616;44.746;19.678;2022-10-31T16:01:28;15.30;99.90
42979;DHT22;28616;44.746;19.678;2022-10-31T16:04:20;15.20;99.90
42979;DHT22;28616;44.746;19.678;2022-10-31T16:07:01;15.10;99.90
42979;DHT22;28616;44.746;19.678;2022-10-31T16:09:28;15.10;99.90
42979;DHT22;28616;44.746;19.678;2022-10-31T16:11:56;15.00;99.90
42979;DHT22;28616;44.746;19.678;2022-10-31T16:14:27;15.00;99.90
42979;DHT22;28616;44.746;19.678;2022-10-31T16:16:56;14.90;99.90
42979;DHT22;28616;44.746;19.678;2022-10-31T16:19:31;14.90;99.90
42979;DHT22;28616;44.746;19.678;2022-10-31T16:22:14;14.80;99.90
42979;DHT22;28616;44.746;19.678;2022-10-31T16:27:26;14.70;99.90
42979;DHT22;28616;44.746;19.678;2022-10-31T16:29:55;14.60;99.90
42979;DHT22;28616;44.746;19.678;2022-10-31T16:32:36;14.60;99.90
42979;DHT22;28616;44.746;19.678;2022-10-31T16:37:42;14.50;99.90
42979;DHT22;28616;44.746;19.678;2022-10-31T16:40:14;14.40;99.90
42979;DHT22;28616;44.746;19.678;2022-10-31T16:42:41;14.40;99.90
42979;DHT22;28616;44.746;19.678;2022-10-31T16:45:10;14.30;99.90
42979;DHT22;28616;44.746;19.678;2022-10-31T16:47:39;14.30;99.90
42979;DHT22;28616;44.746;19.678;2022-10-31T16:50:12;14.30;99.90
42979;DHT22;28616;44.746;19.678;2022-10-31T16:52:39;14.30;99.90
42979;DHT22;28616;44.746;19.678;2022-10-31T16:55:05;14.30;99.90
42979;DHT22;28616;44.746;19.678;2022-10-31T16:57:31;14.30;99.90
42979;DHT22;28616;44.746;19.678;2022-10-31T16:59:57;14.30;99.90
42979;DHT22;28616;44.746;19.678;2022-10-31T17:02:24;14.20;99.90
42979;DHT22;28616;44.746;19.678;2022-10-31T17:04:50;14.20;99.90
42979;DHT22;28616;44.746;19.678;2022-10-31T17:07:15;14.20;99.90
42979;DHT22;28616;44.746;19.678;2022-10-31T17:09:41;14.10;99.90
42979;DHT22;28616;44.746;19.678;2022-10-31T17:12:15;14.10;99.90
42979;DHT22;28616;44.746;19.678;2022-10-31T17:14:42;14.10;99.90
42979;DHT22;28616;44.746;19.678;2022-10-31T17:17:08;14.10;99.90
42979;DHT22;28616;44.746;19.678;2022-10-31T17:19:34;14.00;99.90
42979;DHT22;28616;44.746;19.678;2022-10-31T17:22:01;14.00;99.90
42979;DHT22;28616;44.746;19.678;2022-10-31T17:24:27;14.00;99.90
42979;DHT22;28616;44.746;19.678;2022-10-31T17:26:53;14.00;99.90
42979;DHT22;28616;44.746;19.678;2022-10-31T17:29:18;13.90;99.90
42979;DHT22;28616;44.746;19.678;2022-10-31T17:31:44;13.90;99.90
42979;DHT22;28616;44.746;19.678;2022-10-31T17:34:10;13.90;99.90
42979;DHT22;28616;44.746;19.678;2022-10-31T17:36:36;13.80;99.90
42979;DHT22;28616;44.746;19.678;2022-10-31T17:39:02;13.80;99.90
42979;DHT22;28616;44.746;19.678;2022-10-31T17:41:30;13.70;99.90
42979;DHT22;28616;44.746;19.678;2022-10-31T17:43:56;13.70;99.90
42979;DHT22;28616;44.746;19.678;2022-10-31T17:46:22;13.70;99.90
42979;DHT22;28616;44.746;19.678;2022-10-31T17:48:48;13.70;99.90
42979;DHT22;28616;44.746;19.678;2022-10-31T17:51:14;13.60;99.90
42979;DHT22;28616;44.746;19.678;2022-10-31T17:53:40;13.60;99.90
42979;DHT22;28616;44.746;19.678;2022-10-31T17:56:07;13.60;99.90
42979;DHT22;28616;44.746;19.678;2022-10-31T17:58:34;13.50;99.90
42979;DHT22;28616;44.746;19.678;2022-10-31T18:01:06;13.50;99.90